Time;durP1;ratioP1;P1;durP2;ratioP2;P2;SDS_P1;SDS_P2;PMS_P1;PMS_P2;Temp;Humidity;BMP_temperature;BMP_pressure;BME280_temperature;BME280_humidity;BME280_pressure;Samples;Min_cycle;Max_cycle;Signal;HPM_P1;HPM_P2
2022/03/21 00:00:02;;;;;;;38.47;27.30;;;7.30;99.90;;;;;;4939623;29;20479;-65
2022/03/21 00:02:29;;;;;;;36.50;27.33;;;7.30;99.90;;;;;;4939535;29;20832;-65
2022/03/21 00:04:57;;;;;;;36.60;27.20;;;7.30;99.90;;;;;;4940272;29;20578;-65
2022/03/21 00:07:31;;;;;;;33.03;25.40;;;7.30;99.90;;;;;;5251573;23;20580;-65
2022/03/21 00:10:01;;;;;;;42.30;27.47;;;7.30;99.90;;;;;;4977679;28;20466;-65
2022/03/21 00:12:30;;;;;;;32.77;24.73;;;7.30;99.90;;;;;;4977702;28;20501;-65
2022/03/21 00:15:00;;;;;;;35.97;25.23;;;7.20;99.90;;;;;;4978331;28;20473;-65
2022/03/21 00:17:30;;;;;;;34.80;25.20;;;7.20;99.90;;;;;;4977000;28;20528;-65
2022/03/21 00:20:01;;;;;;;36.90;24.70;;;7.20;99.90;;;;;;4976807;28;20476;-65
2022/03/21 00:22:30;;;;;;;30.83;23.37;;;7.20;99.90;;;;;;4978051;28;20469;-65
2022/03/21 00:24:58;;;;;;;36.23;25.00;;;7.20;99.90;;;;;;4977738;28;20517;-65
2022/03/21 00:27:25;;;;;;;33.10;23.13;;;7.20;99.90;;;;;;4978178;28;20516;-65
2022/03/21 00:29:54;;;;;;;36.37;25.27;;;7.20;99.90;;;;;;4977885;28;20532;-65
2022/03/21 00:32:23;;;;;;;33.43;23.73;;;7.20;99.90;;;;;;4958853;29;20508;-65
2022/03/21 00:34:52;;;;;;;36.53;24.50;;;7.20;24.00;;;;;;4964067;28;20458;-65
2022/03/21 00:37:31;;;;;;;35.47;25.17;;;7.20;1.00;;;;;;4977864;28;20536;-65
2022/03/21 00:39:58;;;;;;;30.63;24.00;;;7.30;1.00;;;;;;4978296;28;20972;-65
2022/03/21 00:42:34;;;;;;;34.23;23.30;;;7.20;1.00;;;;;;4977387;28;20465;-65
2022/03/21 00:45:01;;;;;;;29.73;23.60;;;7.20;99.90;;;;;;4978004;28;20490;-65
2022/03/21 00:47:28;;;;;;;30.80;22.60;;;7.20;1.00;;;;;;4977781;28;20810;-65
2022/03/21 00:49:58;;;;;;;27.87;21.90;;;7.20;1.00;;;;;;4978149;28;20469;-65
2022/03/21 00:52:41;;;;;;;32.67;23.10;;;7.20;1.00;;;;;;4977353;28;20544;-65
2022/03/21 00:55:11;;;;;;;32.13;22.87;;;7.10;99.90;;;;;;4978155;28;20461;-65
2022/03/21 00:57:45;;;;;;;28.40;22.63;;;7.10;99.90;;;;;;4965582;28;20830;-65
2022/03/21 01:00:37;;;;;;;30.00;22.60;;;7.10;1.00;;;;;;4977698;28;20878;-65
2022/03/21 01:03:05;;;;;;;35.20;23.10;;;7.20;1.00;;;;;;4977088;28;20470;-65
2022/03/21 01:05:34;;;;;;;31.23;22.43;;;7.20;99.90;;;;;;4978405;28;20645;-65
2022/03/21 01:08:06;;;;;;;27.80;22.17;;;7.30;99.90;;;;;;4977323;28;20494;-65
2022/03/21 01:10:33;;;;;;;29.13;21.70;;;7.30;1.00;;;;;;4978274;28;20476;-65
2022/03/21 01:13:04;;;;;;;26.93;22.53;;;7.30;99.90;;;;;;4977148;28;20780;-65
2022/03/21 01:15:36;;;;;;;32.63;22.30;;;7.30;1.00;;;;;;4976091;28;20564;-65
2022/03/21 01:18:04;;;;;;;32.23;22.50;;;7.20;1.00;;;;;;4977304;28;20471;-64
2022/03/21 01:20:31;;;;;;;35.33;22.97;;;7.20;99.90;;;;;;4978784;28;20465;-65
2022/03/21 01:23:03;;;;;;;30.43;23.03;;;7.30;1.00;;;;;;4980556;28;21042;-65
2022/03/21 01:25:34;;;;;;;29.80;23.27;;;7.30;1.00;;;;;;4981711;28;20766;-65
2022/03/21 01:28:01;;;;;;;25.17;21.43;;;7.30;98.00;;;;;;4961890;29;20470;-65
2022/03/21 01:30:28;;;;;;;26.43;21.43;;;7.20;1.00;;;;;;4962166;29;20509;-65
2022/03/21 01:32:55;;;;;;;32.43;22.97;;;7.30;99.90;;;;;;4970773;28;20548;-65
2022/03/21 01:35:25;;;;;;;28.83;21.70;;;7.30;99.90;;;;;;4981302;28;20470;-65
2022/03/21 01:37:52;;;;;;;27.23;20.70;;;7.30;99.90;;;;;;4980131;28;20828;-65
2022/03/21 01:40:22;;;;;;;31.57;22.23;;;7.30;99.90;;;;;;4980321;28;20488;-65
2022/03/21 01:42:53;;;;;;;26.00;21.23;;;7.30;1.00;;;;;;4980549;28;20466;-65
2022/03/21 01:45:21;;;;;;;23.63;19.17;;;7.30;1.00;;;;;;4981463;28;20543;-65
2022/03/21 01:47:48;;;;;;;27.30;21.07;;;7.30;1.00;;;;;;4980736;28;20473;-65
2022/03/21 01:50:19;;;;;;;28.40;20.40;;;7.20;99.90;;;;;;4981103;28;20998;-65
2022/03/21 01:52:47;;;;;;;28.20;21.70;;;7.20;99.90;;;;;;4979898;28;20489;-65
2022/03/21 01:58:03;;;;;;;28.83;21.53;;;7.20;99.90;;;;;;4977105;28;20913;-65
2022/03/21 02:00:33;;;;;;;27.03;21.70;;;7.20;99.90;;;;;;4979375;28;20948;-65
2022/03/21 02:03:04;;;;;;;34.37;22.03;;;7.20;1.00;;;;;;4980047;28;20466;-65
2022/03/21 02:05:34;;;;;;;25.17;20.93;;;7.20;1.00;;;;;;4975677;28;20493;-65
2022/03/21 02:08:03;;;;;;;25.50;20.37;;;7.20;99.90;;;;;;4980408;28;20942;-65
2022/03/21 02:10:35;;;;;;;28.50;21.70;;;7.10;99.90;;;;;;4980061;28;20778;-65
2022/03/21 02:13:10;;;;;;;25.73;20.57;;;7.10;99.90;;;;;;4980558;28;20493;-65
2022/03/21 02:15:37;;;;;;;32.23;21.53;;;7.10;1.00;;;;;;4980540;28;20473;-65
2022/03/21 02:18:07;;;;;;;27.67;20.90;;;7.10;1.00;;;;;;4980223;28;20859;-65
2022/03/21 02:20:36;;;;;;;27.20;21.40;;;7.10;99.90;;;;;;4980653;28;20524;-65
2022/03/21 02:23:11;;;;;;;26.30;20.97;;;7.10;99.90;;;;;;4979650;28;20462;-65
2022/03/21 02:25:43;;;;;;;28.10;20.27;;;7.00;99.90;;;;;;4980349;28;20469;-65
2022/03/21 02:28:15;;;;;;;28.30;20.87;;;7.00;1.00;;;;;;4980117;28;20524;-65
2022/03/21 02:30:52;;;;;;;24.50;19.60;;;6.90;1.50;;;;;;4980372;28;20499;-65
2022/03/21 02:33:22;;;;;;;28.07;20.73;;;6.90;99.90;;;;;;4980017;28;20493;-65
2022/03/21 02:35:51;;;;;;;27.03;21.27;;;6.90;99.90;;;;;;4979218;28;20470;-65
2022/03/21 02:38:19;;;;;;;28.03;19.57;;;6.90;99.90;;;;;;4979649;28;20543;-65
2022/03/21 02:40:48;;;;;;;26.20;20.73;;;6.90;99.90;;;;;;4980175;28;20466;-65
2022/03/21 02:43:56;;;;;;;28.20;21.73;;;6.90;18.50;;;;;;4979493;28;20501;-65
2022/03/21 02:46:26;;;;;;;23.87;20.77;;;6.90;1.00;;;;;;4979911;28;20469;-65
2022/03/21 02:48:55;;;;;;;28.07;19.80;;;6.90;26.40;;;;;;4980108;28;20473;-65
2022/03/21 02:51:31;;;;;;;26.93;21.80;;;6.90;1.00;;;;;;4979680;28;20469;-65
2022/03/21 02:54:01;;;;;;;24.10;20.43;;;6.90;1.00;;;;;;4972682;28;20515;-65
2022/03/21 02:56:29;;;;;;;32.57;20.40;;;6.90;99.90;;;;;;4979546;28;20437;-65
2022/03/21 02:58:59;;;;;;;25.00;21.20;;;6.80;1.00;;;;;;4977099;28;20463;-65
2022/03/21 03:01:26;;;;;;;27.43;21.90;;;6.80;1.00;;;;;;4978355;28;20887;-65
2022/03/21 03:03:56;;;;;;;27.00;21.37;;;6.90;99.90;;;;;;4979355;28;20488;-65
2022/03/21 03:06:23;;;;;;;27.73;21.03;;;6.80;99.90;;;;;;4979273;28;20828;-65
2022/03/21 03:08:50;;;;;;;27.90;21.90;;;6.70;99.90;;;;;;4980074;28;20749;-65
2022/03/21 03:11:17;;;;;;;28.53;20.90;;;6.70;23.50;;;;;;4979867;28;20769;-65
2022/03/21 03:13:45;;;;;;;28.53;21.47;;;6.60;1.00;;;;;;4978495;28;20520;-65
2022/03/21 03:16:12;;;;;;;28.90;20.37;;;6.60;1.00;;;;;;4979340;28;20778;-65
2022/03/21 03:18:44;;;;;;;26.47;19.73;;;6.50;99.90;;;;;;4978765;28;20470;-65
2022/03/21 03:21:13;;;;;;;27.80;20.07;;;6.50;1.00;;;;;;4979737;28;20526;-64
2022/03/21 03:23:43;;;;;;;32.07;20.87;;;6.40;1.00;;;;;;4978637;28;20836;-64
2022/03/21 03:26:12;;;;;;;26.87;20.63;;;6.30;1.00;;;;;;4979223;28;20564;-64
2022/03/21 03:28:40;;;;;;;24.20;19.27;;;6.20;1.00;;;;;;4978864;28;20813;-64
2022/03/21 03:31:09;;;;;;;28.07;21.60;;;6.10;25.80;;;;;;4979234;28;20466;-64
2022/03/21 03:33:36;;;;;;;24.97;19.10;;;6.10;1.00;;;;;;4978345;28;20938;-64
2022/03/21 03:36:04;;;;;;;24.20;19.53;;;6.00;99.90;;;;;;4979031;28;20469;-64
2022/03/21 03:38:33;;;;;;;28.63;19.87;;;5.90;99.90;;;;;;4978309;28;20497;-64
2022/03/21 03:41:00;;;;;;;27.00;20.07;;;5.90;99.90;;;;;;4979042;28;20510;-65
2022/03/21 03:43:30;;;;;;;26.17;19.10;;;5.90;25.10;;;;;;4977599;28;20548;-65
2022/03/21 03:46:02;;;;;;;25.87;20.23;;;5.90;1.00;;;;;;4978598;28;20466;-65
2022/03/21 03:48:32;;;;;;;26.73;19.80;;;5.90;1.00;;;;;;4978153;28;20519;-65
2022/03/21 03:51:03;;;;;;;33.20;21.90;;;5.80;99.90;;;;;;4978959;28;20525;-65
2022/03/21 03:53:33;;;;;;;27.20;20.20;;;5.80;99.90;;;;;;4978030;28;20500;-65
2022/03/21 03:56:01;;;;;;;27.17;20.33;;;5.80;99.90;;;;;;4978799;28;20537;-65
2022/03/21 03:58:43;;;;;;;29.53;21.20;;;5.80;99.90;;;;;;4978873;28;20524;-65
2022/03/21 04:01:13;;;;;;;26.43;20.97;;;5.80;99.90;;;;;;4971521;28;20537;-65
2022/03/21 04:03:47;;;;;;;26.60;21.80;;;5.80;99.90;;;;;;4977455;28;20485;-65
2022/03/21 04:06:17;;;;;;;27.60;21.43;;;5.70;99.90;;;;;;4978528;28;20783;-65
2022/03/21 04:08:45;;;;;;;25.43;21.20;;;5.60;99.90;;;;;;4978457;28;20473;-65
2022/03/21 04:11:12;;;;;;;23.43;18.93;;;5.60;99.90;;;;;;4978914;28;20532;-65
2022/03/21 04:13:40;;;;;;;28.67;20.30;;;5.60;99.90;;;;;;4978168;28;20497;-65
2022/03/21 04:16:08;;;;;;;29.50;20.87;;;5.60;99.90;;;;;;4977723;28;20466;-65
2022/03/21 04:18:38;;;;;;;26.13;19.27;;;5.60;99.90;;;;;;4978056;28;20472;-65
2022/03/21 04:21:20;;;;;;;24.50;20.10;;;5.60;99.90;;;;;;4978675;28;20890;-65
2022/03/21 04:23:47;;;;;;;29.30;21.60;;;5.60;99.90;;;;;;4978160;28;20465;-64
2022/03/21 04:26:14;;;;;;;29.00;21.77;;;5.60;99.90;;;;;;4977378;28;20466;-64
2022/03/21 04:28:41;;;;;;;28.00;19.80;;;5.50;99.90;;;;;;4978386;28;20823;-64
2022/03/21 04:31:10;;;;;;;24.20;19.97;;;5.40;99.90;;;;;;4977970;28;20470;-64
2022/03/21 04:33:42;;;;;;;32.63;20.93;;;5.40;99.90;;;;;;4977851;28;20501;-65
2022/03/21 04:36:10;;;;;;;25.47;19.00;;;5.40;99.90;;;;;;4976934;28;20476;-65
2022/03/21 04:38:38;;;;;;;23.30;17.77;;;5.30;99.90;;;;;;4977943;28;20564;-64
2022/03/21 04:41:06;;;;;;;25.40;18.97;;;5.30;99.90;;;;;;4978855;28;20516;-64
2022/03/21 04:43:33;;;;;;;22.60;19.03;;;5.20;99.90;;;;;;4978087;28;20512;-64
2022/03/21 04:46:00;;;;;;;27.53;20.30;;;5.20;99.90;;;;;;4977390;28;20494;-64
2022/03/21 04:48:30;;;;;;;29.00;19.60;;;5.20;99.90;;;;;;4977304;28;20470;-64
2022/03/21 04:50:57;;;;;;;26.70;20.23;;;5.10;99.90;;;;;;4977251;28;20462;-64
2022/03/21 04:53:27;;;;;;;29.50;21.30;;;5.10;99.90;;;;;;4977793;28;20493;-64
2022/03/21 04:56:01;;;;;;;26.07;18.80;;;5.00;99.90;;;;;;4980693;28;20465;-64
2022/03/21 04:58:30;;;;;;;27.90;20.10;;;5.00;99.90;;;;;;4982204;28;20464;-64
2022/03/21 05:00:57;;;;;;;23.03;18.60;;;4.90;99.90;;;;;;4978465;28;20470;-64
2022/03/21 05:03:26;;;;;;;23.30;19.53;;;4.90;99.90;;;;;;4971214;28;20461;-64
2022/03/21 05:05:54;;;;;;;25.17;19.37;;;4.80;99.90;;;;;;4981714;28;20466;-64
2022/03/21 05:08:28;;;;;;;24.70;18.93;;;4.80;99.90;;;;;;4980671;28;20485;-64
2022/03/21 05:10:57;;;;;;;28.10;20.37;;;4.80;99.90;;;;;;4981230;28;20508;-65
2022/03/21 05:13:28;;;;;;;28.93;22.07;;;4.80;99.90;;;;;;4981782;28;20536;-64
2022/03/21 05:16:02;;;;;;;26.63;20.63;;;4.80;99.90;;;;;;4981237;28;20523;-64
2022/03/21 05:18:29;;;;;;;29.70;20.73;;;4.80;99.90;;;;;;4980837;28;20465;-64
2022/03/21 05:20:56;;;;;;;30.97;22.30;;;4.80;99.90;;;;;;4981505;28;20473;-64
2022/03/21 05:31:41;;;;;;;23.90;20.00;;;5.00;19.60;;;;;;4980749;28;20445;-64
2022/03/21 05:36:55;;;;;;;23.67;18.87;;;5.00;99.90;;;;;;4980299;28;20493;-64
2022/03/21 05:39:23;;;;;;;26.70;20.20;;;5.00;1.00;;;;;;4979916;28;20513;-64
2022/03/21 05:41:55;;;;;;;26.07;19.87;;;5.00;1.00;;;;;;4981259;28;20801;-64
2022/03/21 05:44:24;;;;;;;26.37;21.07;;;5.10;99.90;;;;;;4981210;28;20898;-64
2022/03/21 05:46:53;;;;;;;22.47;18.90;;;5.00;99.90;;;;;;4980535;28;20477;-64
2022/03/21 05:49:22;;;;;;;26.47;20.00;;;5.00;99.90;;;;;;4979838;28;20894;-64
2022/03/21 05:51:49;;;;;;;22.47;19.07;;;5.00;99.90;;;;;;4978638;28;20758;-64
2022/03/21 05:54:16;;;;;;;26.30;19.97;;;5.00;50.90;;;;;;4979259;28;20494;-64
2022/03/21 05:56:47;;;;;;;24.90;19.10;;;5.00;52.10;;;;;;4979038;28;20461;-64
2022/03/21 06:02:06;;;;;;;23.77;19.17;;;5.00;63.90;;;;;;4977620;28;20445;-64
2022/03/21 06:04:35;;;;;;;26.57;19.10;;;5.00;94.20;;;;;;4978728;28;20462;-64
2022/03/21 06:07:02;;;;;;;26.70;18.67;;;5.00;1.00;;;;;;4978036;28;20478;-64
2022/03/21 06:09:32;;;;;;;22.93;17.93;;;5.10;1.00;;;;;;4977496;28;20533;-64
2022/03/21 06:11:59;;;;;;;26.10;21.67;;;5.10;1.00;;;;;;4977753;28;20520;-64
2022/03/21 06:14:30;;;;;;;25.57;20.30;;;5.20;1.00;;;;;;4977470;28;20486;-64
2022/03/21 06:16:57;;;;;;;25.60;19.93;;;5.20;1.00;;;;;;4978045;28;20496;-64
2022/03/21 06:19:30;;;;;;;26.00;20.53;;;5.20;1.00;;;;;;4976218;28;20458;-64
2022/03/21 06:22:03;;;;;;;22.07;18.73;;;5.40;1.00;;;;;;4978466;28;20453;-64
2022/03/21 06:24:32;;;;;;;22.47;18.37;;;5.50;1.00;;;;;;4976785;28;20508;-64
2022/03/21 06:27:02;;;;;;;25.80;19.47;;;5.60;1.00;;;;;;4979285;28;20520;-64
2022/03/21 06:29:42;;;;;;;25.07;19.73;;;5.70;1.00;;;;;;4978670;28;20462;-64
2022/03/21 06:32:13;;;;;;;24.60;20.67;;;5.80;1.00;;;;;;4976631;28;20462;-64
2022/03/21 06:34:40;;;;;;;22.93;19.97;;;6.00;1.00;;;;;;4977869;28;20490;-63
2022/03/21 06:37:10;;;;;;;21.70;18.87;;;6.20;1.00;;;;;;4978616;28;20458;-63
2022/03/21 06:39:38;;;;;;;21.40;18.63;;;6.30;1.00;;;;;;4978185;28;20470;-63
2022/03/21 06:42:06;;;;;;;24.00;18.87;;;6.40;1.00;;;;;;4976296;28;20462;-63
2022/03/21 06:44:37;;;;;;;24.60;19.60;;;6.40;1.00;;;;;;4976712;28;20466;-64
2022/03/21 06:47:05;;;;;;;27.53;20.63;;;6.50;1.00;;;;;;4977208;28;20516;-63
2022/03/21 06:49:32;;;;;;;22.53;18.43;;;6.60;1.00;;;;;;4980106;28;20474;-63
2022/03/21 06:52:02;;;;;;;21.60;17.57;;;6.80;1.00;;;;;;4988768;28;20458;-63
2022/03/21 06:54:32;;;;;;;20.43;17.23;;;7.00;1.00;;;;;;4998924;28;20842;-63
2022/03/21 06:57:08;;;;;;;21.03;17.10;;;7.20;99.90;;;;;;4961739;28;20461;-63
2022/03/21 06:59:37;;;;;;;20.03;17.77;;;7.40;99.90;;;;;;4997525;28;20468;-64
2022/03/21 07:02:06;;;;;;;23.50;17.53;;;7.60;99.90;;;;;;4978846;28;20481;-64
2022/03/21 07:04:33;;;;;;;21.07;17.00;;;7.80;99.90;;;;;;4978233;28;20469;-64
2022/03/21 07:07:00;;;;;;;19.80;17.37;;;7.90;99.90;;;;;;4981920;28;20488;-64
2022/03/21 07:09:27;;;;;;;19.73;16.67;;;8.20;99.90;;;;;;4975502;28;20477;-65
2022/03/21 07:11:54;;;;;;;17.90;14.80;;;8.40;99.90;;;;;;4975828;28;20899;-65
2022/03/21 07:14:21;;;;;;;23.50;19.53;;;8.60;99.90;;;;;;4984805;28;20571;-65
2022/03/21 07:16:50;;;;;;;19.20;16.37;;;8.70;99.90;;;;;;4983342;28;20462;-65
2022/03/21 07:19:18;;;;;;;18.63;16.63;;;8.90;99.90;;;;;;4984650;28;20460;-65
2022/03/21 07:21:45;;;;;;;18.87;16.20;;;9.00;99.90;;;;;;4983611;28;20556;-66
2022/03/21 07:24:13;;;;;;;20.77;16.37;;;9.20;99.90;;;;;;4978910;28;20461;-66
2022/03/21 07:26:43;;;;;;;18.67;16.40;;;9.30;99.90;;;;;;4974218;28;20477;-66
2022/03/21 07:29:21;;;;;;;19.50;16.70;;;9.50;99.90;;;;;;4981391;28;20898;-66
2022/03/21 07:31:58;;;;;;;20.47;16.53;;;9.70;99.90;;;;;;4983977;28;20465;-66
2022/03/21 07:34:28;;;;;;;23.20;15.87;;;9.70;99.90;;;;;;4988595;28;20504;-66
2022/03/21 07:36:57;;;;;;;19.20;16.43;;;9.90;99.90;;;;;;4992547;28;20497;-66
2022/03/21 07:39:26;;;;;;;19.67;16.60;;;10.00;99.90;;;;;;4989436;28;20465;-66
2022/03/21 07:42:00;;;;;;;19.97;17.60;;;10.10;99.90;;;;;;4987874;28;20501;-65
2022/03/21 07:47:20;;;;;;;18.63;15.97;;;10.60;99.90;;;;;;4957212;28;20450;-65
2022/03/21 07:49:53;;;;;;;17.17;15.43;;;10.70;99.90;;;;;;4980552;28;20506;-65
2022/03/21 07:52:31;;;;;;;18.07;16.17;;;10.90;99.90;;;;;;4981893;28;20922;-64
2022/03/21 07:54:59;;;;;;;19.03;16.80;;;11.00;99.90;;;;;;4994259;28;21031;-64
2022/03/21 07:57:29;;;;;;;18.60;16.10;;;11.10;99.90;;;;;;4995394;28;20535;-64
2022/03/21 07:59:56;;;;;;;18.43;16.43;;;11.20;99.90;;;;;;4994944;28;20476;-63
2022/03/21 08:02:28;;;;;;;18.07;16.17;;;11.30;99.90;;;;;;4990885;28;20896;-63
2022/03/21 08:04:55;;;;;;;21.90;15.43;;;11.60;99.90;;;;;;4995698;28;20461;-63
2022/03/21 08:07:22;;;;;;;17.97;16.10;;;11.70;99.90;;;;;;4997194;28;20929;-63
2022/03/21 08:09:52;;;;;;;19.87;17.07;;;11.80;99.90;;;;;;4979215;28;20473;-63
2022/03/21 08:12:22;;;;;;;17.60;15.67;;;12.00;99.90;;;;;;4993334;28;20869;-62
2022/03/21 08:14:59;;;;;;;19.30;16.97;;;12.20;99.90;;;;;;4996587;28;20559;-62
2022/03/21 08:17:47;;;;;;;20.53;16.70;;;12.30;99.90;;;;;;4997363;28;20512;-62
2022/03/21 08:20:17;;;;;;;19.40;15.87;;;12.50;99.90;;;;;;4982403;28;20547;-62
2022/03/21 08:22:48;;;;;;;18.23;16.13;;;12.70;99.90;;;;;;4994697;28;20543;-62
2022/03/21 08:25:18;;;;;;;17.73;15.90;;;12.90;99.90;;;;;;4982037;28;20464;-62
2022/03/21 08:27:55;;;;;;;18.77;16.87;;;13.10;99.90;;;;;;4997170;28;20523;-61
2022/03/21 08:30:27;;;;;;;18.90;16.30;;;13.20;99.90;;;;;;4988858;28;20465;-61
2022/03/21 08:32:58;;;;;;;17.87;16.07;;;13.30;99.90;;;;;;4997438;28;20536;-61
2022/03/21 08:35:28;;;;;;;19.03;17.27;;;13.50;99.90;;;;;;4972752;28;20512;-60
2022/03/21 08:37:55;;;;;;;19.73;17.73;;;13.70;99.90;;;;;;4997031;28;20469;-61
2022/03/21 08:40:36;;;;;;;19.83;15.87;;;13.90;99.90;;;;;;4994968;28;20477;-61
2022/03/21 08:43:07;;;;;;;18.60;16.70;;;14.20;99.90;;;;;;4997520;28;20749;-61
2022/03/21 08:45:40;;;;;;;19.30;17.30;;;14.50;99.90;;;;;;4990260;28;20523;-61
2022/03/21 08:48:13;;;;;;;18.20;16.40;;;14.70;99.90;;;;;;4997462;28;20790;-61
2022/03/21 08:50:40;;;;;;;19.23;17.23;;;14.90;99.90;;;;;;4986410;28;20910;-61
2022/03/21 08:53:10;;;;;;;18.40;16.80;;;15.00;99.90;;;;;;4988319;28;20469;-61
2022/03/21 08:55:42;;;;;;;19.53;16.90;;;15.20;99.90;;;;;;4995327;28;20523;-61
2022/03/21 08:58:12;;;;;;;21.70;17.00;;;15.20;99.90;;;;;;4997539;28;20520;-61
2022/03/21 09:00:42;;;;;;;19.70;17.40;;;15.20;99.90;;;;;;4991701;28;20808;-61
2022/03/21 09:03:15;;;;;;;19.60;17.50;;;15.50;99.90;;;;;;4992712;28;20465;-60
2022/03/21 09:05:46;;;;;;;19.93;17.37;;;15.90;99.90;;;;;;4986489;28;20465;-61
2022/03/21 09:08:17;;;;;;;20.50;18.50;;;15.80;99.90;;;;;;4994552;28;21012;-61
2022/03/21 09:10:44;;;;;;;20.17;17.73;;;15.60;99.90;;;;;;4994601;28;20477;-59
2022/03/21 09:13:13;;;;;;;21.10;18.03;;;15.70;99.90;;;;;;4994489;28;20749;-60
2022/03/21 09:15:44;;;;;;;22.37;19.17;;;15.80;99.90;;;;;;4989121;28;20497;-61
2022/03/21 09:18:13;;;;;;;19.00;16.77;;;15.90;99.90;;;;;;4994924;28;20830;-60
2022/03/21 09:20:43;;;;;;;18.57;16.70;;;16.10;99.90;;;;;;4996426;28;20472;-61
2022/03/21 09:23:13;;;;;;;19.27;16.40;;;16.50;99.90;;;;;;4976010;28;20525;-59
2022/03/21 09:25:40;;;;;;;21.10;18.90;;;16.60;99.90;;;;;;4989810;28;20462;-60
2022/03/21 09:28:12;;;;;;;19.70;17.60;;;16.40;99.90;;;;;;4996612;28;20465;-60
2022/03/21 09:30:40;;;;;;;19.70;17.67;;;16.20;99.90;;;;;;4997395;28;20492;-60
2022/03/21 09:33:10;;;;;;;18.50;16.50;;;16.50;99.90;;;;;;4982383;28;20478;-60
2022/03/21 09:35:38;;;;;;;19.63;17.20;;;16.50;99.90;;;;;;4996941;28;20861;-60
2022/03/21 09:38:08;;;;;;;19.90;16.97;;;16.80;99.90;;;;;;4977737;28;20536;-61
2022/03/21 09:40:39;;;;;;;19.70;17.73;;;17.20;99.90;;;;;;4977137;28;20458;-59
2022/03/21 09:43:07;;;;;;;19.97;17.57;;;17.50;99.90;;;;;;4979352;28;20461;-60
2022/03/21 09:45:36;;;;;;;19.00;16.63;;;17.60;99.90;;;;;;4981698;28;20512;-58
2022/03/21 09:48:16;;;;;;;19.93;17.93;;;17.90;99.90;;;;;;4985668;28;20500;-60
2022/03/21 09:50:51;;;;;;;19.53;17.63;;;18.00;99.90;;;;;;4999909;28;20464;-60
2022/03/21 09:53:21;;;;;;;17.93;16.03;;;18.10;99.90;;;;;;4982988;28;20775;-60
2022/03/21 09:55:50;;;;;;;19.67;17.40;;;18.10;99.90;;;;;;4983314;28;20485;-57
2022/03/21 09:58:20;;;;;;;20.40;18.40;;;18.20;99.90;;;;;;4990218;28;20767;-60
2022/03/21 10:00:49;;;;;;;19.63;17.63;;;18.30;99.90;;;;;;4995043;28;20912;-59
2022/03/21 10:03:16;;;;;;;22.07;16.97;;;18.30;99.90;;;;;;4981309;28;20549;-60
2022/03/21 10:05:50;;;;;;;20.10;17.57;;;18.60;99.90;;;;;;4985588;28;20520;-60
2022/03/21 10:08:24;;;;;;;17.23;15.60;;;18.60;99.90;;;;;;4995915;28;20492;-59
2022/03/21 10:10:59;;;;;;;18.70;16.77;;;18.90;99.90;;;;;;4999689;28;20465;-59
2022/03/21 10:13:28;;;;;;;18.13;16.27;;;19.20;99.90;;;;;;4997863;28;20472;-58
2022/03/21 10:16:09;;;;;;;18.93;17.13;;;19.20;99.90;;;;;;4988297;28;20845;-59
2022/03/21 10:19:04;;;;;;;19.67;17.80;;;19.10;99.90;;;;;;4988376;28;20478;-60
2022/03/21 10:21:35;;;;;;;20.50;16.57;;;19.10;99.90;;;;;;4990159;28;20545;-59
2022/03/21 10:24:06;;;;;;;19.87;17.50;;;19.20;99.90;;;;;;4992125;28;20465;-60
2022/03/21 10:26:36;;;;;;;20.00;17.90;;;19.20;99.90;;;;;;4995642;28;20879;-60
2022/03/21 10:29:07;;;;;;;19.97;15.80;;;19.30;99.90;;;;;;4987879;28;20470;-60
2022/03/21 10:31:46;;;;;;;18.60;16.77;;;19.40;99.90;;;;;;4995369;28;20472;-59
2022/03/21 10:34:18;;;;;;;18.93;16.93;;;19.10;99.90;;;;;;4985168;28;20936;-59
2022/03/21 10:37:06;;;;;;;21.90;17.30;;;19.20;99.90;;;;;;4977255;28;20790;-59
2022/03/21 10:39:35;;;;;;;20.07;17.00;;;19.40;99.90;;;;;;4977380;28;20474;-60
2022/03/21 10:42:06;;;;;;;18.83;16.97;;;19.50;99.90;;;;;;4972181;28;20565;-60
2022/03/21 10:44:36;;;;;;;18.80;17.00;;;20.10;99.90;;;;;;4986369;28;20481;-57
2022/03/21 10:47:06;;;;;;;18.77;17.03;;;20.30;99.90;;;;;;4979420;28;20461;-60
2022/03/21 10:49:35;;;;;;;27.33;17.13;;;20.40;99.90;;;;;;4979733;28;20524;-58
2022/03/21 10:52:05;;;;;;;18.00;16.10;;;20.50;99.90;;;;;;4981269;28;20533;-59
2022/03/21 10:54:40;;;;;;;18.43;16.53;;;20.60;99.90;;;;;;4995282;28;20460;-60
2022/03/21 10:57:31;;;;;;;18.07;16.30;;;20.50;99.90;;;;;;4998133;28;20534;-60
2022/03/21 11:00:18;;;;;;;18.27;16.37;;;20.10;99.90;;;;;;4974754;28;20476;-60
2022/03/21 11:02:56;;;;;;;17.33;15.57;;;20.20;99.90;;;;;;4989815;28;20465;-59
2022/03/21 11:05:24;;;;;;;17.70;16.00;;;20.30;99.90;;;;;;4980962;28;20472;-59
2022/03/21 11:08:00;;;;;;;17.53;15.50;;;20.30;99.90;;;;;;4991372;28;20493;-59
2022/03/21 11:10:36;;;;;;;18.00;16.20;;;20.40;99.90;;;;;;4983751;28;20813;-59
2022/03/21 11:13:07;;;;;;;18.43;16.73;;;20.70;99.90;;;;;;4984696;28;20465;-59
2022/03/21 11:15:36;;;;;;;17.20;15.67;;;20.90;99.90;;;;;;4987622;28;20601;-59
2022/03/21 11:18:05;;;;;;;17.33;15.63;;;20.80;99.90;;;;;;4995051;28;20531;-59
2022/03/21 11:20:38;;;;;;;17.50;14.90;;;20.70;99.90;;;;;;4986234;28;20524;-60
2022/03/21 11:23:08;;;;;;;16.53;14.93;;;21.00;99.90;;;;;;4979317;28;20504;-59
2022/03/21 11:25:45;;;;;;;18.60;16.77;;;21.40;99.90;;;;;;4985067;28;20465;-60
2022/03/21 11:28:37;;;;;;;17.07;15.40;;;21.00;99.90;;;;;;4980159;28;20535;-58
2022/03/21 11:31:36;;;;;;;16.50;14.40;;;20.80;99.90;;;;;;4982189;28;20932;-60
2022/03/21 11:34:22;;;;;;;17.87;15.97;;;20.90;99.90;;;;;;4984214;28;20473;-61
2022/03/21 11:36:56;;;;;;;18.40;16.50;;;20.90;99.90;;;;;;4981192;28;20973;-62
2022/03/21 11:39:25;;;;;;;17.03;15.33;;;21.00;99.90;;;;;;4980779;28;20772;-61
2022/03/21 11:42:08;;;;;;;15.20;13.70;;;21.10;99.90;;;;;;4985969;28;20473;-62
2022/03/21 11:44:36;;;;;;;17.73;15.93;;;21.30;99.90;;;;;;4972227;28;20462;-62
2022/03/21 11:47:30;;;;;;;17.20;15.47;;;21.40;99.90;;;;;;4971441;28;20500;-62
2022/03/21 11:49:57;;;;;;;16.30;14.70;;;21.80;99.90;;;;;;4974514;28;20568;-61
2022/03/21 11:52:24;;;;;;;16.70;15.03;;;21.80;99.90;;;;;;4986038;28;20548;-61
2022/03/21 11:54:53;;;;;;;17.20;15.40;;;21.40;99.90;;;;;;4976196;28;20470;-62
2022/03/21 11:57:35;;;;;;;17.30;15.50;;;21.00;99.90;;;;;;4993346;28;20500;-62
2022/03/21 12:00:04;;;;;;;15.70;14.20;;;21.10;99.90;;;;;;4978808;28;20532;-62
2022/03/21 12:02:56;;;;;;;17.33;14.47;;;21.00;99.90;;;;;;4997542;28;20511;-61
2022/03/21 12:05:50;;;;;;;14.00;12.60;;;21.50;99.90;;;;;;4979964;28;20470;-62
2022/03/21 12:08:59;;;;;;;14.50;13.10;;;22.20;99.90;;;;;;4997346;28;20489;-62
2022/03/21 12:11:58;;;;;;;13.97;12.60;;;22.30;99.90;;;;;;4983256;28;20527;-62
2022/03/21 12:14:41;;;;;;;14.40;13.17;;;22.10;99.90;;;;;;4902738;29;20484;-62
2022/03/21 12:17:40;;;;;;;13.97;12.67;;;22.00;99.90;;;;;;4918439;28;20588;-62
2022/03/21 12:20:18;;;;;;;13.33;12.03;;;22.00;99.90;;;;;;4975952;28;20512;-62
2022/03/21 12:22:49;;;;;;;13.70;11.63;;;22.00;99.90;;;;;;4982484;28;20980;-62
2022/03/21 12:25:20;;;;;;;12.30;11.10;;;22.20;99.90;;;;;;4985209;28;20753;-63
2022/03/21 12:28:01;;;;;;;13.17;11.73;;;22.60;99.90;;;;;;4994894;28;20560;-60
2022/03/21 12:30:48;;;;;;;14.83;11.57;;;22.50;99.90;;;;;;4986506;28;20519;-60
2022/03/21 12:33:45;;;;;;;13.33;11.40;;;22.20;99.90;;;;;;4980351;28;20472;-60
2022/03/21 12:36:30;;;;;;;10.30;9.30;;;22.20;99.90;;;;;;4966061;28;20536;-60
2022/03/21 12:39:00;;;;;;;10.50;9.23;;;22.40;99.90;;;;;;4986886;28;20469;-60
2022/03/21 12:41:39;;;;;;;10.67;9.33;;;22.00;99.90;;;;;;4995886;28;20464;-58
2022/03/21 12:44:09;;;;;;;11.07;10.07;;;21.50;99.90;;;;;;4995034;28;20524;-60
2022/03/21 12:49:19;;;;;;;17.23;9.60;;;21.30;99.90;;;;;;4989919;28;20480;-60
2022/03/21 12:51:48;;;;;;;10.50;9.40;;;21.00;99.90;;;;;;4995583;28;20749;-60
2022/03/21 12:54:20;;;;;;;10.57;8.50;;;21.30;99.90;;;;;;4997056;28;20475;-59
2022/03/21 12:56:50;;;;;;;11.67;10.47;;;20.90;99.90;;;;;;4979335;28;20571;-60
2022/03/21 12:59:27;;;;;;;11.87;9.43;;;20.70;99.90;;;;;;4962255;28;20772;-59
2022/03/21 13:02:06;;;;;;;10.60;9.47;;;20.90;99.90;;;;;;4981457;28;20468;-60
2022/03/21 13:10:43;;;;;;;11.50;9.90;;;21.30;99.90;;;;;;4989097;28;20505;-61
2022/03/21 13:13:14;;;;;;;9.77;9.00;;;21.50;99.90;;;;;;4993057;28;20505;-60
2022/03/21 13:15:46;;;;;;;9.50;8.60;;;21.80;99.90;;;;;;4996630;28;20468;-61
2022/03/21 13:18:18;;;;;;;14.03;9.40;;;21.90;99.90;;;;;;4989301;28;20470;-60
2022/03/21 13:20:46;;;;;;;13.07;10.10;;;21.80;99.90;;;;;;4980223;28;20509;-60
2022/03/21 13:23:18;;;;;;;10.53;9.53;;;21.90;99.90;;;;;;4998181;28;20468;-60
2022/03/21 13:25:48;;;;;;;10.33;9.17;;;21.30;99.90;;;;;;4996159;28;20465;-60